Max Planck — ELZY8 — position and weather

sailwx.info

Track history (hours):
 
Tides and Currents Weather Stations Pressure Air Temp Water Temp Dewpoint Dewpoint Depression Visibility Wind Speed Wind Dir Waves Ship Positions

Max Planck

Last reported at 2014-Dec-17 22:33 UTC. Time now 2014-Dec-18 21:40 UTC.
Position N 29°57' E 121°51'.

Length 99.9 m; beam 16.2 m; draft 6.8 m.

Type: Ship (hazmat cat D). MMSI: 636091773.

Date/timePositionNaut miles runAvg speedWind from/ knotsBaromVisibWave heightAir tempDewpointWater temp
2014-Dec-17 22:33N 29°57' E 121°51'6 5.9
2014-Dec-17 21:31N 30°03' E 121°48'7 6.9
2014-Dec-17 20:30N 30°10' E 121°48'7 6.8
2014-Dec-17 19:31N 30°16' E 121°47'5 3.2
2014-Dec-17 18:04N 30°20' E 121°43'0 0.0
2014-Dec-17 17:10N 30°20' E 121°43'0 0.0
2014-Dec-17 05:22N 30°20' E 121°43'0 0.0
2014-Dec-17 00:04N 30°20' E 121°43'0 0.0
2014-Dec-16 22:28N 30°20' E 121°43'1 0.2
2014-Dec-16 19:10N 30°19' E 121°43'0 0.1
2014-Dec-16 18:22N 30°19' E 121°44'0 0.0
2014-Dec-16 17:16N 30°19' E 121°44'0 0.0
2014-Dec-16 16:28N 30°19' E 121°44'0 0.0
2014-Dec-16 10:04N 30°19' E 121°44'0 0.0
2014-Dec-15 23:10N 30°19' E 121°43'0 0.1
2014-Dec-15 22:28N 30°19' E 121°43'0 0.1
2014-Dec-15 20:28N 30°19' E 121°43'0 0.1
2014-Dec-15 18:16N 30°19' E 121°43'0 0.0
2014-Dec-15 16:28N 30°19' E 121°44'1 0.4
2014-Dec-15 13:27N 30°20' E 121°45'36 7.2
2014-Dec-15 08:27N 30°44' E 122°16'  
2014-Dec-10 02:03N 35°04' E 139°41'4 8.6
2014-Dec-10 01:33N 35°07' E 139°45'10 9.8
2014-Dec-10 00:33N 35°17' E 139°45'9 9.3
2014-Dec-09 23:34N 35°26' E 139°45'5 4.9
2014-Dec-09 22:32N 35°31' E 139°46'0 0.0
2014-Dec-09 05:09N 35°31' E 139°46'1 1.5
2014-Dec-09 04:33N 35°30' E 139°45'3 2.7
2014-Dec-09 03:33N 35°28' E 139°44'0 0.0
2014-Dec-09 02:33N 35°28' E 139°44'0 0.0
2014-Dec-09 01:33N 35°28' E 139°44'0 0.0
2014-Dec-09 00:33N 35°28' E 139°44'0 0.0
2014-Dec-08 23:33N 35°28' E 139°44'0 0.0
2014-Dec-08 22:33N 35°28' E 139°44'0 0.0
2014-Dec-08 21:33N 35°28' E 139°44'0 0.1
2014-Dec-08 20:33N 35°28' E 139°44'0 0.0
2014-Dec-08 19:33N 35°28' E 139°44'0 0.0
2014-Dec-08 18:33N 35°28' E 139°44'0 0.0
2014-Dec-08 17:33N 35°28' E 139°44'0 0.0
2014-Dec-08 16:33N 35°28' E 139°44'0 0.0
2014-Dec-08 15:33N 35°28' E 139°44'0 0.1
2014-Dec-08 14:33N 35°28' E 139°44'0 0.0
2014-Dec-08 13:33N 35°28' E 139°44'0 0.1
2014-Dec-08 12:33N 35°28' E 139°44'0 0.0
2014-Dec-08 11:21N 35°28' E 139°44'0 0.0
2014-Dec-08 10:33N 35°28' E 139°44'0 0.0
2014-Dec-08 09:33N 35°28' E 139°44'0 0.0
2014-Dec-08 08:30N 35°28' E 139°44'0 0.1
2014-Dec-08 07:33N 35°28' E 139°44'0 0.1
2014-Dec-08 06:33N 35°28' E 139°44'0 0.1
2014-Dec-08 05:33N 35°28' E 139°44'0 0.1
2014-Dec-08 04:30N 35°28' E 139°44'0 0.0
2014-Dec-08 03:33N 35°28' E 139°44'0 0.0
2014-Dec-08 02:33N 35°28' E 139°44'0 0.0
2014-Dec-08 01:33N 35°28' E 139°44'0 0.0
2014-Dec-08 00:33N 35°28' E 139°44'2 2.1
2014-Dec-07 23:33N 35°26' E 139°45'9 8.6
2014-Dec-07 22:33N 35°17' E 139°45'  
Track history (hours):
 
Tides and Currents Weather Stations Pressure Air Temp Water Temp Dewpoint Dewpoint Depression Visibility Wind Speed Wind Dir Waves Ship Positions

Max Planck

Last reported at 2014-Dec-17 22:33 UTC. Time now 2014-Dec-18 21:40 UTC.
Position N 29°57' E 121°51'.

Length 99.9 m; beam 16.2 m; draft 6.8 m.

Type: Ship (hazmat cat D). MMSI: 636091773.

Date/timePositionNaut miles runAvg speedWind from/ knotsBaromVisibWave heightAir tempDewpointWater temp
2014-Dec-17 22:33N 29°57' E 121°51'6 5.9
2014-Dec-17 21:31N 30°03' E 121°48'7 6.9
2014-Dec-17 20:30N 30°10' E 121°48'7 6.8
2014-Dec-17 19:31N 30°16' E 121°47'5 3.2
2014-Dec-17 18:04N 30°20' E 121°43'0 0.0
2014-Dec-17 17:10N 30°20' E 121°43'0 0.0
2014-Dec-17 05:22N 30°20' E 121°43'0 0.0
2014-Dec-17 00:04N 30°20' E 121°43'0 0.0
2014-Dec-16 22:28N 30°20' E 121°43'1 0.2
2014-Dec-16 19:10N 30°19' E 121°43'0 0.1
2014-Dec-16 18:22N 30°19' E 121°44'0 0.0
2014-Dec-16 17:16N 30°19' E 121°44'0 0.0
2014-Dec-16 16:28N 30°19' E 121°44'0 0.0
2014-Dec-16 10:04N 30°19' E 121°44'0 0.0
2014-Dec-15 23:10N 30°19' E 121°43'0 0.1
2014-Dec-15 22:28N 30°19' E 121°43'0 0.1
2014-Dec-15 20:28N 30°19' E 121°43'0 0.1
2014-Dec-15 18:16N 30°19' E 121°43'0 0.0
2014-Dec-15 16:28N 30°19' E 121°44'1 0.4
2014-Dec-15 13:27N 30°20' E 121°45'36 7.2
2014-Dec-15 08:27N 30°44' E 122°16'  
2014-Dec-10 02:03N 35°04' E 139°41'4 8.6
2014-Dec-10 01:33N 35°07' E 139°45'10 9.8
2014-Dec-10 00:33N 35°17' E 139°45'9 9.3
2014-Dec-09 23:34N 35°26' E 139°45'5 4.9
2014-Dec-09 22:32N 35°31' E 139°46'0 0.0
2014-Dec-09 05:09N 35°31' E 139°46'1 1.5
2014-Dec-09 04:33N 35°30' E 139°45'3 2.7
2014-Dec-09 03:33N 35°28' E 139°44'0 0.0
2014-Dec-09 02:33N 35°28' E 139°44'0 0.0
2014-Dec-09 01:33N 35°28' E 139°44'0 0.0
2014-Dec-09 00:33N 35°28' E 139°44'0 0.0
2014-Dec-08 23:33N 35°28' E 139°44'0 0.0
2014-Dec-08 22:33N 35°28' E 139°44'0 0.0
2014-Dec-08 21:33N 35°28' E 139°44'0 0.1
2014-Dec-08 20:33N 35°28' E 139°44'0 0.0
2014-Dec-08 19:33N 35°28' E 139°44'0 0.0
2014-Dec-08 18:33N 35°28' E 139°44'0 0.0
2014-Dec-08 17:33N 35°28' E 139°44'0 0.0
2014-Dec-08 16:33N 35°28' E 139°44'0 0.0
2014-Dec-08 15:33N 35°28' E 139°44'0 0.1
2014-Dec-08 14:33N 35°28' E 139°44'0 0.0
2014-Dec-08 13:33N 35°28' E 139°44'0 0.1
2014-Dec-08 12:33N 35°28' E 139°44'0 0.0
2014-Dec-08 11:21N 35°28' E 139°44'0 0.0
2014-Dec-08 10:33N 35°28' E 139°44'0 0.0
2014-Dec-08 09:33N 35°28' E 139°44'0 0.0
2014-Dec-08 08:30N 35°28' E 139°44'0 0.1
2014-Dec-08 07:33N 35°28' E 139°44'0 0.1
2014-Dec-08 06:33N 35°28' E 139°44'0 0.1
2014-Dec-08 05:33N 35°28' E 139°44'0 0.1
2014-Dec-08 04:30N 35°28' E 139°44'0 0.0
2014-Dec-08 03:33N 35°28' E 139°44'0 0.0
2014-Dec-08 02:33N 35°28' E 139°44'0 0.0
2014-Dec-08 01:33N 35°28' E 139°44'0 0.0
2014-Dec-08 00:33N 35°28' E 139°44'2 2.1
2014-Dec-07 23:33N 35°26' E 139°45'9 8.6
2014-Dec-07 22:33N 35°17' E 139°45'  

Dump ship's entire track history